Silver Cloud — C6MQ5 — position and weather

sailwx.info

Track history (hours):
 
Tides and Currents Weather Stations Pressure Air Temp Water Temp Dewpoint Dewpoint Depression Visibility Wind Speed Wind Dir Waves Ship Positions

Silver Cloud

Operator: V Ships Leisure SAM

Last reported at 2014-Oct-30 04:29 UTC. Time now 2014-Oct-30 17:40 UTC.
Position N 37°23' E 022°53'.

Length 155 m; draft 5.7 m.

Type: Passenger vessel. MMSI: 309027000.

Date/timePositionNaut miles runAvg speedWind from/ knotsBaromVisibWave heightAir tempDewpointWater temp
2014-Oct-30 04:29N 37°23' E 022°53'5814.4
2014-Oct-30 00:29N 37°05' E 024°02'1314.4
2014-Oct-29 23:33N 37°04' E 024°19'1414.1
2014-Oct-29 22:33N 37°06' E 024°37'1515.3
2014-Oct-29 21:33N 37°12' E 024°54'1514.8
2014-Oct-29 20:33N 37°16' E 025°12'1615.5
2014-Oct-29 19:33N 37°16' E 025°31'1615.6
2014-Oct-29 18:33N 37°16' E 025°51'1615.6
2014-Oct-29 17:33N 37°15' E 026°10'1615.7
2014-Oct-29 16:33N 37°14' E 026°30'8 0.7
2014-Oct-29 04:29N 37°10' E 026°38'  
2014-Oct-24 18:12N 37°20' E 026°53'229 4.7
2014-Oct-22 17:32N 40°53' E 028°39'9 8.8
2014-Oct-22 16:33N 40°55' E 028°50'9 7.9
2014-Oct-22 15:21N 41°01' E 028°59'0 0.0
2014-Oct-22 06:10N 41°01' E 028°59'0 0.0
2014-Oct-22 04:28N 41°01' E 028°59'0 0.0
2014-Oct-22 02:10N 41°01' E 028°59'26 8.9
2014-Oct-21 23:13N 41°27' E 029°02'  
Track history (hours):
 
Tides and Currents Weather Stations Pressure Air Temp Water Temp Dewpoint Dewpoint Depression Visibility Wind Speed Wind Dir Waves Ship Positions

Silver Cloud

Operator: V Ships Leisure SAM

Last reported at 2014-Oct-30 04:29 UTC. Time now 2014-Oct-30 17:40 UTC.
Position N 37°23' E 022°53'.

Length 155 m; draft 5.7 m.

Type: Passenger vessel. MMSI: 309027000.

Date/timePositionNaut miles runAvg speedWind from/ knotsBaromVisibWave heightAir tempDewpointWater temp
2014-Oct-30 04:29N 37°23' E 022°53'5814.4
2014-Oct-30 00:29N 37°05' E 024°02'1314.4
2014-Oct-29 23:33N 37°04' E 024°19'1414.1
2014-Oct-29 22:33N 37°06' E 024°37'1515.3
2014-Oct-29 21:33N 37°12' E 024°54'1514.8
2014-Oct-29 20:33N 37°16' E 025°12'1615.5
2014-Oct-29 19:33N 37°16' E 025°31'1615.6
2014-Oct-29 18:33N 37°16' E 025°51'1615.6
2014-Oct-29 17:33N 37°15' E 026°10'1615.7
2014-Oct-29 16:33N 37°14' E 026°30'8 0.7
2014-Oct-29 04:29N 37°10' E 026°38'  
2014-Oct-24 18:12N 37°20' E 026°53'229 4.7
2014-Oct-22 17:32N 40°53' E 028°39'9 8.8
2014-Oct-22 16:33N 40°55' E 028°50'9 7.9
2014-Oct-22 15:21N 41°01' E 028°59'0 0.0
2014-Oct-22 06:10N 41°01' E 028°59'0 0.0
2014-Oct-22 04:28N 41°01' E 028°59'0 0.0
2014-Oct-22 02:10N 41°01' E 028°59'26 8.9
2014-Oct-21 23:13N 41°27' E 029°02'  

Dump ship's entire track history